Time;durP1;ratioP1;P1;durP2;ratioP2;P2;SDS_P1;SDS_P2;PMS_P1;PMS_P2;Temp;Humidity;BMP_temperature;BMP_pressure;BME280_temperature;BME280_humidity;BME280_pressure;Samples;Min_cycle;Max_cycle;Signal;HPM_P1;HPM_P2
2024/03/19 00:00:48;;;;;;;17.45;12.13;;;;;;;;;;5089646;28;20498;-83
2024/03/19 00:03:14;;;;;;;21.05;12.93;;;;;;;;;;5066163;28;20450;-81
2024/03/19 00:05:39;;;;;;;20.58;12.40;;;;;;;;;;5088904;28;20107;-81
2024/03/19 00:08:05;;;;;;;23.02;12.80;;;;;;;;;;5059701;28;20036;-82
2024/03/19 00:10:30;;;;;;;19.88;12.35;;;;;;;;;;5065743;28;20388;-81
2024/03/19 00:12:59;;;;;;;20.83;12.57;;;;;;;;;;5062201;28;20074;-81
2024/03/19 00:15:24;;;;;;;21.58;13.35;;;;;;;;;;5083501;28;20111;-81
2024/03/19 00:17:52;;;;;;;19.55;12.50;;;;;;;;;;5085320;28;20119;-82
2024/03/19 00:20:18;;;;;;;18.33;12.40;;;;;;;;;;5083416;28;20024;-81
2024/03/19 00:22:44;;;;;;;23.50;13.30;;;;;;;;;;5083931;28;20032;-80
2024/03/19 00:25:09;;;;;;;21.80;13.48;;;;;;;;;;5064075;28;20356;-85
2024/03/19 00:27:36;;;;;;;20.17;12.50;;;;;;;;;;5086269;28;20048;-82
2024/03/19 00:30:03;;;;;;;26.08;13.30;;;;;;;;;;5080967;28;20027;-82
2024/03/19 00:32:29;;;;;;;21.33;12.95;;;;;;;;;;5072043;28;20081;-82
2024/03/19 00:34:55;;;;;;;18.98;12.88;;;;;;;;;;5091031;28;20020;-83
2024/03/19 00:37:21;;;;;;;21.40;13.27;;;;;;;;;;5083025;28;20019;-82
2024/03/19 00:39:46;;;;;;;23.23;13.20;;;;;;;;;;5069333;28;20505;-82
2024/03/19 00:42:12;;;;;;;21.17;12.98;;;;;;;;;;5069634;28;20035;-82
2024/03/19 00:44:37;;;;;;;19.95;12.57;;;;;;;;;;5089232;28;20099;-82
2024/03/19 00:47:04;;;;;;;20.98;12.35;;;;;;;;;;5061671;28;20039;-82
2024/03/19 00:49:29;;;;;;;21.88;12.73;;;;;;;;;;5065547;28;20024;-82
2024/03/19 00:51:55;;;;;;;19.45;12.75;;;;;;;;;;5091664;28;20107;-82
2024/03/19 00:54:20;;;;;;;22.40;13.35;;;;;;;;;;5070673;28;20052;-82
2024/03/19 00:56:46;;;;;;;21.13;12.63;;;;;;;;;;5069917;28;20027;-82
2024/03/19 00:59:12;;;;;;;24.80;13.35;;;;;;;;;;5072328;28;20027;-82
2024/03/19 01:01:40;;;;;;;21.02;13.48;;;;;;;;;;5068166;28;20036;-83
2024/03/19 01:04:05;;;;;;;22.25;12.50;;;;;;;;;;5093749;28;20032;-83
2024/03/19 01:06:32;;;;;;;20.85;13.60;;;;;;;;;;5068318;28;20520;-83
2024/03/19 01:08:58;;;;;;;24.38;14.07;;;;;;;;;;5089584;28;20387;-84
2024/03/19 01:11:23;;;;;;;23.83;14.52;;;;;;;;;;5088787;28;20028;-83
2024/03/19 01:13:49;;;;;;;20.05;13.20;;;;;;;;;;5070377;28;20387;-83
2024/03/19 01:16:14;;;;;;;26.63;14.25;;;;;;;;;;5084979;28;20070;-83
2024/03/19 01:18:40;;;;;;;24.40;14.55;;;;;;;;;;5085256;28;20108;-83
2024/03/19 01:21:06;;;;;;;24.40;13.57;;;;;;;;;;5087226;28;20408;-83
2024/03/19 01:23:31;;;;;;;23.92;13.90;;;;;;;;;;5090355;28;20660;-83
2024/03/19 01:25:57;;;;;;;26.38;14.23;;;;;;;;;;5073611;28;20031;-83
2024/03/19 01:28:22;;;;;;;23.77;14.10;;;;;;;;;;5089824;28;20479;-83
2024/03/19 01:30:48;;;;;;;21.45;13.98;;;;;;;;;;5090272;28;20349;-83
2024/03/19 01:33:14;;;;;;;24.65;14.13;;;;;;;;;;5087501;28;20020;-83
2024/03/19 01:35:40;;;;;;;22.02;13.35;;;;;;;;;;5081454;28;20157;-83
2024/03/19 01:38:06;;;;;;;25.35;15.02;;;;;;;;;;5070281;28;20118;-84
2024/03/19 01:40:31;;;;;;;24.00;14.68;;;;;;;;;;5087728;28;20479;-87
2024/03/19 01:42:57;;;;;;;26.00;14.73;;;;;;;;;;5064440;28;20106;-87
2024/03/19 01:45:23;;;;;;;29.48;16.63;;;;;;;;;;5071302;28;20103;-87
2024/03/19 01:47:50;;;;;;;25.63;15.10;;;;;;;;;;5083381;28;20031;-86
2024/03/19 01:50:15;;;;;;;25.27;16.42;;;;;;;;;;5069453;28;20024;-82
2024/03/19 01:52:46;;;;;;;25.38;15.35;;;;;;;;;;5090909;28;20020;-83
2024/03/19 01:55:12;;;;;;;26.67;15.85;;;;;;;;;;5066404;28;20479;-83
2024/03/19 01:57:38;;;;;;;27.70;15.88;;;;;;;;;;5068085;28;20032;-86
2024/03/19 02:00:04;;;;;;;26.70;15.73;;;;;;;;;;5070660;28;20032;-85
2024/03/19 02:02:34;;;;;;;26.15;15.75;;;;;;;;;;5068138;28;20089;-87
2024/03/19 02:05:01;;;;;;;27.13;15.95;;;;;;;;;;5032165;22;20550;-79
2024/03/19 02:07:27;;;;;;;24.58;15.20;;;;;;;;;;5008392;28;20498;-79
2024/03/19 02:09:55;;;;;;;26.92;16.15;;;;;;;;;;5009424;28;20033;-79
2024/03/19 02:12:23;;;;;;;26.55;15.77;;;;;;;;;;5022919;28;20120;-79
2024/03/19 02:14:49;;;;;;;27.52;15.13;;;;;;;;;;5024494;28;20030;-78
2024/03/19 02:17:16;;;;;;;25.83;15.57;;;;;;;;;;5026623;28;20037;-79
2024/03/19 02:19:42;;;;;;;25.48;14.38;;;;;;;;;;5026544;28;20025;-79
2024/03/19 02:22:09;;;;;;;31.10;15.98;;;;;;;;;;5011673;28;20493;-79
2024/03/19 02:24:35;;;;;;;25.92;14.73;;;;;;;;;;5005975;28;20026;-79
2024/03/19 02:27:02;;;;;;;26.13;15.27;;;;;;;;;;5009272;28;20037;-79
2024/03/19 02:29:28;;;;;;;25.75;15.65;;;;;;;;;;5010304;28;20060;-79
2024/03/19 02:31:53;;;;;;;23.60;13.95;;;;;;;;;;5025441;28;20468;-79
2024/03/19 02:34:18;;;;;;;26.65;15.00;;;;;;;;;;5019792;28;20034;-79
2024/03/19 02:36:44;;;;;;;24.60;15.00;;;;;;;;;;5026150;28;20027;-79
2024/03/19 02:39:12;;;;;;;26.10;13.60;;;;;;;;;;5024452;28;20025;-79
2024/03/19 02:41:37;;;;;;;23.15;14.55;;;;;;;;;;5025438;28;20030;-79
2024/03/19 02:44:03;;;;;;;24.38;13.98;;;;;;;;;;5025413;28;20479;-79
2024/03/19 02:46:28;;;;;;;25.73;13.85;;;;;;;;;;5028435;28;20387;-79
2024/03/19 02:48:54;;;;;;;21.77;13.15;;;;;;;;;;5033143;28;20057;-78
2024/03/19 02:51:19;;;;;;;24.02;13.98;;;;;;;;;;5030886;28;20102;-79
2024/03/19 02:53:44;;;;;;;22.73;13.38;;;;;;;;;;5029214;28;20045;-79
2024/03/19 02:56:10;;;;;;;21.80;12.98;;;;;;;;;;5029627;28;20029;-79
2024/03/19 02:58:35;;;;;;;22.02;13.25;;;;;;;;;;5024159;28;20517;-79
2024/03/19 03:01:01;;;;;;;17.95;11.77;;;;;;;;;;5024425;28;20080;-79
2024/03/19 03:03:26;;;;;;;22.08;12.85;;;;;;;;;;5024809;28;20026;-78
2024/03/19 03:05:51;;;;;;;23.15;13.15;;;;;;;;;;5026276;28;20096;-79
2024/03/19 03:08:17;;;;;;;21.48;12.70;;;;;;;;;;5028294;28;20422;-79
2024/03/19 03:10:42;;;;;;;19.52;12.82;;;;;;;;;;5032754;28;20545;-77
2024/03/19 03:13:08;;;;;;;21.73;11.77;;;;;;;;;;5025752;28;20049;-76
2024/03/19 03:15:34;;;;;;;23.17;11.95;;;;;;;;;;5026049;28;20542;-77
2024/03/19 03:17:59;;;;;;;18.80;11.25;;;;;;;;;;5025511;28;20026;-76
2024/03/19 03:20:25;;;;;;;17.77;10.77;;;;;;;;;;5028667;28;20128;-77
2024/03/19 03:22:51;;;;;;;19.85;11.13;;;;;;;;;;5014253;28;20130;-77
2024/03/19 03:25:16;;;;;;;21.92;11.70;;;;;;;;;;5011244;28;20447;-78
2024/03/19 03:27:42;;;;;;;17.73;11.00;;;;;;;;;;5028303;28;20029;-77
2024/03/19 03:30:10;;;;;;;21.27;12.48;;;;;;;;;;5031276;28;20053;-77
2024/03/19 03:32:39;;;;;;;18.05;11.25;;;;;;;;;;5026934;28;20036;-77
2024/03/19 03:35:06;;;;;;;17.88;10.95;;;;;;;;;;5026619;28;20109;-77
2024/03/19 03:37:32;;;;;;;17.67;10.77;;;;;;;;;;5028995;28;20033;-77
2024/03/19 03:39:57;;;;;;;18.75;11.00;;;;;;;;;;5022753;28;20040;-78
2024/03/19 03:42:23;;;;;;;18.90;11.52;;;;;;;;;;5011749;28;20028;-77
2024/03/19 03:44:49;;;;;;;19.40;10.30;;;;;;;;;;5026141;28;20119;-77
2024/03/19 03:47:14;;;;;;;16.55;10.60;;;;;;;;;;5024073;28;20091;-77
2024/03/19 03:49:40;;;;;;;17.73;10.65;;;;;;;;;;5024937;28;20021;-77
2024/03/19 03:52:05;;;;;;;16.45;10.32;;;;;;;;;;5021661;28;20036;-77
2024/03/19 03:54:31;;;;;;;17.65;10.57;;;;;;;;;;5021613;28;20021;-76
2024/03/19 03:56:56;;;;;;;18.17;10.15;;;;;;;;;;5007203;28;20391;-77
2024/03/19 03:59:21;;;;;;;17.10;10.05;;;;;;;;;;5014513;28;20429;-77
2024/03/19 04:01:47;;;;;;;17.60;11.10;;;;;;;;;;5025413;28;20481;-77
2024/03/19 04:04:13;;;;;;;16.95;9.63;;;;;;;;;;5023951;28;20029;-77
2024/03/19 04:06:38;;;;;;;18.23;10.05;;;;;;;;;;5024456;28;20048;-77
2024/03/19 04:09:03;;;;;;;17.33;9.93;;;;;;;;;;5005911;28;20037;-77
2024/03/19 04:11:29;;;;;;;16.52;10.23;;;;;;;;;;5005975;28;20491;-77
2024/03/19 04:13:54;;;;;;;17.67;10.35;;;;;;;;;;5021299;28;20053;-77
2024/03/19 04:16:19;;;;;;;17.85;10.55;;;;;;;;;;5020547;28;20659;-77
2024/03/19 04:18:45;;;;;;;14.80;10.13;;;;;;;;;;5019411;28;20166;-77
2024/03/19 04:21:10;;;;;;;17.73;10.82;;;;;;;;;;5005006;28;20128;-77
2024/03/19 04:23:35;;;;;;;15.23;9.73;;;;;;;;;;5026199;28;20395;-78
2024/03/19 04:26:01;;;;;;;20.25;11.00;;;;;;;;;;5010679;28;20091;-77
2024/03/19 04:28:26;;;;;;;15.95;10.20;;;;;;;;;;5023332;28;20038;-76
2024/03/19 04:30:51;;;;;;;17.75;10.55;;;;;;;;;;5019970;28;20029;-78
2024/03/19 04:33:17;;;;;;;17.27;10.80;;;;;;;;;;5007499;28;20399;-78
2024/03/19 04:35:42;;;;;;;19.75;10.40;;;;;;;;;;5029523;28;20382;-78
2024/03/19 04:38:12;;;;;;;17.80;10.40;;;;;;;;;;5016882;28;20496;-78
2024/03/19 04:40:37;;;;;;;17.42;10.55;;;;;;;;;;5003456;28;20033;-78
2024/03/19 04:43:04;;;;;;;17.25;10.27;;;;;;;;;;5006957;28;20032;-78
2024/03/19 04:45:30;;;;;;;18.10;10.30;;;;;;;;;;5020196;28;20100;-78
2024/03/19 04:47:56;;;;;;;17.88;10.27;;;;;;;;;;5009794;28;20116;-78
2024/03/19 04:50:23;;;;;;;18.83;10.43;;;;;;;;;;5027742;28;20038;-78
2024/03/19 04:52:51;;;;;;;20.08;11.10;;;;;;;;;;5022347;28;20109;-77
2024/03/19 04:55:17;;;;;;;19.27;10.65;;;;;;;;;;5026229;28;20026;-78
2024/03/19 04:57:43;;;;;;;18.38;10.57;;;;;;;;;;5022854;28;20097;-78
2024/03/19 05:00:13;;;;;;;16.67;9.93;;;;;;;;;;5024682;28;20034;-78
2024/03/19 05:02:38;;;;;;;15.18;9.80;;;;;;;;;;5022641;28;20025;-78
2024/03/19 05:05:04;;;;;;;15.25;9.85;;;;;;;;;;5021582;28;20032;-77
2024/03/19 05:07:29;;;;;;;17.20;10.38;;;;;;;;;;5024237;28;20533;-78
2024/03/19 05:09:55;;;;;;;16.77;10.57;;;;;;;;;;5027206;28;20022;-78
2024/03/19 05:12:21;;;;;;;17.23;9.90;;;;;;;;;;5028524;28;20040;-78
2024/03/19 05:14:46;;;;;;;20.63;10.10;;;;;;;;;;5006243;28;20030;-78
2024/03/19 05:17:13;;;;;;;16.90;10.48;;;;;;;;;;5020854;28;20072;-78
2024/03/19 05:19:38;;;;;;;19.50;11.05;;;;;;;;;;5028495;28;20030;-78
2024/03/19 05:22:03;;;;;;;16.13;10.57;;;;;;;;;;5028907;28;20017;-78
2024/03/19 05:24:29;;;;;;;19.83;10.85;;;;;;;;;;5010019;28;20556;-78
2024/03/19 05:26:54;;;;;;;17.00;10.00;;;;;;;;;;5028957;28;20026;-78
2024/03/19 05:29:20;;;;;;;16.92;10.13;;;;;;;;;;5023509;28;20033;-78
2024/03/19 05:31:45;;;;;;;15.32;10.07;;;;;;;;;;5010293;28;20033;-78
2024/03/19 05:34:10;;;;;;;18.27;10.35;;;;;;;;;;5010910;28;20022;-78
2024/03/19 05:36:36;;;;;;;18.85;10.93;;;;;;;;;;5010790;28;20387;-78
2024/03/19 05:39:01;;;;;;;18.60;9.88;;;;;;;;;;5019588;28;20032;-78
2024/03/19 05:41:27;;;;;;;20.08;10.32;;;;;;;;;;5009289;28;20129;-78
2024/03/19 05:43:52;;;;;;;16.92;10.43;;;;;;;;;;5026931;28;20026;-77
2024/03/19 05:46:18;;;;;;;15.38;9.27;;;;;;;;;;5023278;28;20391;-78
2024/03/19 05:48:43;;;;;;;15.40;9.63;;;;;;;;;;5019902;28;20033;-78
2024/03/19 05:51:09;;;;;;;13.23;9.00;;;;;;;;;;5020604;28;20029;-78
2024/03/19 05:53:38;;;;;;;16.52;9.50;;;;;;;;;;5008306;28;20476;-78
2024/03/19 05:56:04;;;;;;;14.63;9.10;;;;;;;;;;5025675;28;20135;-78
2024/03/19 05:58:31;;;;;;;15.80;9.20;;;;;;;;;;5024239;28;20032;-78
2024/03/19 06:00:58;;;;;;;14.00;8.82;;;;;;;;;;5009012;28;20037;-78
2024/03/19 06:03:23;;;;;;;14.73;8.10;;;;;;;;;;5027242;28;20053;-78
2024/03/19 06:05:55;;;;;;;15.30;8.40;;;;;;;;;;5005211;28;20080;-78
2024/03/19 06:08:21;;;;;;;15.00;8.52;;;;;;;;;;5012863;28;20021;-78
2024/03/19 06:10:47;;;;;;;13.07;8.27;;;;;;;;;;5023811;28;20021;-77
2024/03/19 06:13:12;;;;;;;15.13;8.30;;;;;;;;;;5026167;28;20026;-77
2024/03/19 06:15:38;;;;;;;12.38;8.05;;;;;;;;;;5010188;28;20034;-77
2024/03/19 06:18:03;;;;;;;14.52;8.30;;;;;;;;;;5025725;28;20480;-77
2024/03/19 06:20:29;;;;;;;15.85;8.38;;;;;;;;;;5032282;28;20395;-77
2024/03/19 06:22:54;;;;;;;18.25;8.48;;;;;;;;;;5014244;28;20104;-77
2024/03/19 06:25:20;;;;;;;15.05;8.70;;;;;;;;;;5014765;28;20085;-76
2024/03/19 06:27:45;;;;;;;15.65;8.57;;;;;;;;;;5012700;28;20025;-78
2024/03/19 06:30:14;;;;;;;14.43;8.77;;;;;;;;;;5029772;28;20437;-77
2024/03/19 06:32:39;;;;;;;14.93;8.68;;;;;;;;;;5031553;28;20028;-77
2024/03/19 06:35:05;;;;;;;17.80;9.63;;;;;;;;;;5007976;28;20021;-77
2024/03/19 06:37:31;;;;;;;14.25;8.57;;;;;;;;;;5005876;28;20025;-77
2024/03/19 06:39:56;;;;;;;15.48;9.13;;;;;;;;;;5032394;28;20035;-79
2024/03/19 06:42:21;;;;;;;15.18;8.43;;;;;;;;;;5030138;28;20025;-77
2024/03/19 06:44:47;;;;;;;21.00;8.75;;;;;;;;;;5030259;28;20112;-77
2024/03/19 06:47:13;;;;;;;15.48;8.75;;;;;;;;;;5014737;28;20144;-76
2024/03/19 06:49:38;;;;;;;16.55;9.18;;;;;;;;;;5032624;28;20092;-77
2024/03/19 06:52:04;;;;;;;17.17;9.20;;;;;;;;;;4997620;28;20021;-77
2024/03/19 06:54:30;;;;;;;16.08;8.38;;;;;;;;;;5031610;28;20495;-77
2024/03/19 06:56:55;;;;;;;14.88;8.68;;;;;;;;;;5024676;28;20056;-78
2024/03/19 06:59:24;;;;;;;14.48;8.40;;;;;;;;;;5030450;28;20033;-77
2024/03/19 07:01:49;;;;;;;17.73;7.95;;;;;;;;;;5032217;28;20017;-77
2024/03/19 07:04:16;;;;;;;15.57;8.27;;;;;;;;;;5008745;28;20077;-77
2024/03/19 07:06:42;;;;;;;13.70;8.05;;;;;;;;;;5027315;28;20029;-77
2024/03/19 07:09:09;;;;;;;13.48;8.13;;;;;;;;;;5031647;28;20017;-77
2024/03/19 07:11:35;;;;;;;16.05;8.23;;;;;;;;;;5029355;28;20108;-77
2024/03/19 07:14:00;;;;;;;11.95;7.25;;;;;;;;;;5006299;28;20112;-79
2024/03/19 07:16:26;;;;;;;15.77;7.93;;;;;;;;;;5031342;28;20030;-77
2024/03/19 07:18:51;;;;;;;14.02;7.57;;;;;;;;;;5030602;28;20022;-77
2024/03/19 07:21:17;;;;;;;13.52;7.28;;;;;;;;;;5007581;28;20017;-77
2024/03/19 07:23:42;;;;;;;12.70;7.38;;;;;;;;;;5027003;28;20032;-77
2024/03/19 07:26:08;;;;;;;14.68;7.38;;;;;;;;;;5032039;28;20484;-77
2024/03/19 07:28:33;;;;;;;14.85;7.60;;;;;;;;;;5020811;28;20029;-77
2024/03/19 07:30:58;;;;;;;17.73;7.80;;;;;;;;;;5014056;28;20052;-77
2024/03/19 07:33:24;;;;;;;14.10;7.55;;;;;;;;;;5035596;28;20510;-77
2024/03/19 07:35:49;;;;;;;14.00;7.30;;;;;;;;;;5035628;28;20071;-77
2024/03/19 07:38:15;;;;;;;14.45;7.30;;;;;;;;;;5016362;28;20029;-76
2024/03/19 07:40:40;;;;;;;12.90;6.57;;;;;;;;;;5028038;28;20033;-77
2024/03/19 07:43:05;;;;;;;15.38;7.70;;;;;;;;;;5031403;28;20364;-77
2024/03/19 07:45:31;;;;;;;14.93;8.20;;;;;;;;;;5035112;28;20027;-79
2024/03/19 07:47:57;;;;;;;13.48;7.47;;;;;;;;;;5010997;28;20475;-77
2024/03/19 07:50:28;;;;;;;11.52;6.78;;;;;;;;;;5033893;28;20101;-77
2024/03/19 07:52:54;;;;;;;11.07;6.97;;;;;;;;;;5007507;28;20033;-77
2024/03/19 07:55:20;;;;;;;17.27;7.20;;;;;;;;;;5034958;28;20030;-77
2024/03/19 07:57:45;;;;;;;13.80;6.85;;;;;;;;;;5028085;28;20113;-79
2024/03/19 08:00:11;;;;;;;11.63;7.28;;;;;;;;;;5017645;28;20108;-77
2024/03/19 08:02:39;;;;;;;15.10;7.68;;;;;;;;;;5035204;28;20404;-76
2024/03/19 08:05:07;;;;;;;16.08;8.43;;;;;;;;;;5034407;28;20022;-76
2024/03/19 08:07:35;;;;;;;20.63;8.82;;;;;;;;;;5027280;28;20076;-76
2024/03/19 08:10:00;;;;;;;19.00;8.77;;;;;;;;;;5027494;28;20476;-76
2024/03/19 08:12:25;;;;;;;13.98;7.55;;;;;;;;;;5026215;28;20044;-76
2024/03/19 08:14:52;;;;;;;14.25;8.05;;;;;;;;;;5026379;28;20026;-76
2024/03/19 08:17:18;;;;;;;15.15;7.97;;;;;;;;;;5032549;28;20574;-77
2024/03/19 08:19:43;;;;;;;13.10;7.57;;;;;;;;;;5034979;28;20029;-78
2024/03/19 08:22:09;;;;;;;14.77;8.48;;;;;;;;;;5033741;28;20476;-76
2024/03/19 08:24:34;;;;;;;13.95;8.07;;;;;;;;;;5025702;28;20091;-76
2024/03/19 08:26:59;;;;;;;13.60;8.20;;;;;;;;;;5028453;28;20398;-76
2024/03/19 08:29:25;;;;;;;16.98;8.48;;;;;;;;;;5034405;28;20036;-78
2024/03/19 08:31:50;;;;;;;13.02;8.07;;;;;;;;;;5021565;28;20028;-78
2024/03/19 08:34:15;;;;;;;12.65;7.80;;;;;;;;;;5034349;28;20083;-77
2024/03/19 08:36:41;;;;;;;14.10;7.82;;;;;;;;;;5032592;28;20028;-76
2024/03/19 08:39:07;;;;;;;12.35;7.15;;;;;;;;;;5011015;28;20108;-78
2024/03/19 08:41:33;;;;;;;14.02;7.68;;;;;;;;;;5008654;28;20447;-78
2024/03/19 08:43:58;;;;;;;14.93;7.60;;;;;;;;;;5008376;28;20053;-78
2024/03/19 08:46:23;;;;;;;12.20;6.90;;;;;;;;;;5030916;28;20029;-78
2024/03/19 08:48:49;;;;;;;12.65;6.68;;;;;;;;;;5034094;28;20033;-78
2024/03/19 08:51:15;;;;;;;11.80;6.22;;;;;;;;;;5030054;28;20021;-78
2024/03/19 08:53:42;;;;;;;12.63;6.72;;;;;;;;;;5032578;28;20025;-78
2024/03/19 08:56:07;;;;;;;10.93;6.35;;;;;;;;;;5033430;28;20494;-78
2024/03/19 08:58:33;;;;;;;12.77;6.32;;;;;;;;;;5034093;28;20025;-78
2024/03/19 09:00:58;;;;;;;10.77;5.80;;;;;;;;;;5033961;28;20033;-78
2024/03/19 09:03:24;;;;;;;8.63;5.28;;;;;;;;;;5034004;28;20032;-78
2024/03/19 09:06:00;;;;;;;9.82;5.65;;;;;;;;;;5032625;28;20033;-78
2024/03/19 09:08:27;;;;;;;10.52;5.53;;;;;;;;;;5009584;28;20487;-78
2024/03/19 09:10:53;;;;;;;9.35;5.10;;;;;;;;;;5033713;28;20534;-78
2024/03/19 09:13:19;;;;;;;13.50;5.70;;;;;;;;;;5024453;28;20068;-77
2024/03/19 09:15:44;;;;;;;12.48;5.15;;;;;;;;;;5021370;28;20021;-78
2024/03/19 09:18:10;;;;;;;8.80;5.18;;;;;;;;;;5033572;28;20061;-78
2024/03/19 09:20:35;;;;;;;9.43;4.93;;;;;;;;;;5015917;28;20422;-78
2024/03/19 09:23:01;;;;;;;12.10;5.60;;;;;;;;;;5016208;28;20024;-78
2024/03/19 09:25:26;;;;;;;10.50;4.68;;;;;;;;;;5029448;28;20561;-78
2024/03/19 09:27:51;;;;;;;11.60;4.68;;;;;;;;;;5020642;28;20484;-78
2024/03/19 09:30:17;;;;;;;13.60;5.30;;;;;;;;;;5033227;28;20025;-78
2024/03/19 09:32:42;;;;;;;10.43;5.20;;;;;;;;;;5024545;28;20036;-78
2024/03/19 09:35:08;;;;;;;13.50;5.38;;;;;;;;;;5032101;28;20064;-78
2024/03/19 09:37:33;;;;;;;9.75;4.80;;;;;;;;;;5012447;28;20399;-78
2024/03/19 09:39:59;;;;;;;11.40;5.20;;;;;;;;;;5032236;28;20478;-79
2024/03/19 09:42:26;;;;;;;9.95;5.05;;;;;;;;;;5026471;28;20037;-76
2024/03/19 09:44:52;;;;;;;11.60;5.47;;;;;;;;;;5030081;28;20021;-76
2024/03/19 09:47:19;;;;;;;11.93;5.75;;;;;;;;;;5032939;28;20060;-79
2024/03/19 09:49:45;;;;;;;12.23;5.57;;;;;;;;;;5032257;28;20029;-79
2024/03/19 09:52:13;;;;;;;11.68;4.97;;;;;;;;;;5028077;28;20059;-78
2024/03/19 09:54:39;;;;;;;10.90;3.85;;;;;;;;;;5031239;28;20029;-79
2024/03/19 09:57:18;;;;;;;7.32;3.45;;;;;;;;;;5032159;28;20028;-76
2024/03/19 09:59:46;;;;;;;5.25;2.72;;;;;;;;;;5032990;28;20396;-76
2024/03/19 10:02:21;;;;;;;7.50;3.13;;;;;;;;;;5024668;28;20100;-78
2024/03/19 10:04:48;;;;;;;7.03;3.42;;;;;;;;;;5030340;28;20052;-76
2024/03/19 10:07:20;;;;;;;9.55;3.88;;;;;;;;;;5031833;28;20026;-79
2024/03/19 10:09:48;;;;;;;10.93;3.25;;;;;;;;;;5031361;28;20028;-78
2024/03/19 10:12:14;;;;;;;7.97;3.50;;;;;;;;;;5024665;28;20034;-78
2024/03/19 10:14:40;;;;;;;6.30;3.50;;;;;;;;;;5021898;28;20025;-78
2024/03/19 10:17:09;;;;;;;10.93;3.38;;;;;;;;;;5032563;28;20025;-78
2024/03/19 10:19:35;;;;;;;9.23;4.18;;;;;;;;;;5032692;28;20026;-79
2024/03/19 10:22:01;;;;;;;11.98;3.75;;;;;;;;;;5029985;28;20036;-79
2024/03/19 10:24:26;;;;;;;6.90;2.97;;;;;;;;;;5030628;28;20438;-79
2024/03/19 10:26:53;;;;;;;6.50;3.33;;;;;;;;;;5032502;28;20434;-79
2024/03/19 10:29:18;;;;;;;5.65;2.90;;;;;;;;;;5016596;28;20392;-78
2024/03/19 10:31:48;;;;;;;7.57;3.05;;;;;;;;;;5011113;28;20028;-78
2024/03/19 10:34:21;;;;;;;7.57;2.80;;;;;;;;;;5009320;28;20033;-79
2024/03/19 10:36:50;;;;;;;7.07;3.08;;;;;;;;;;5014286;28;20041;-79
2024/03/19 10:39:17;;;;;;;7.47;3.10;;;;;;;;;;5032274;28;20079;-78
2024/03/19 10:41:46;;;;;;;8.30;2.95;;;;;;;;;;5014445;28;20026;-78
2024/03/19 10:44:17;;;;;;;8.13;3.30;;;;;;;;;;5030218;28;20013;-79
2024/03/19 10:46:47;;;;;;;8.80;2.92;;;;;;;;;;5031002;28;20494;-79
2024/03/19 10:49:17;;;;;;;10.35;3.95;;;;;;;;;;5032705;28;20049;-78
2024/03/19 10:51:49;;;;;;;8.20;3.47;;;;;;;;;;5021445;28;20022;-79
2024/03/19 10:54:17;;;;;;;8.13;3.38;;;;;;;;;;5011611;28;20064;-79
2024/03/19 10:56:43;;;;;;;10.27;3.55;;;;;;;;;;5020523;28;20037;-79
2024/03/19 10:59:13;;;;;;;10.07;3.42;;;;;;;;;;5027798;28;20087;-79
2024/03/19 11:01:50;;;;;;;7.63;3.47;;;;;;;;;;5013472;28;20041;-79
2024/03/19 11:04:15;;;;;;;7.60;3.63;;;;;;;;;;5024663;28;20083;-78
2024/03/19 11:06:41;;;;;;;7.20;2.78;;;;;;;;;;5011861;28;20045;-79
2024/03/19 11:09:21;;;;;;;6.57;2.20;;;;;;;;;;5033092;28;20072;-79
2024/03/19 11:12:05;;;;;;;7.90;2.45;;;;;;;;;;5023341;28;20072;-78
2024/03/19 11:14:32;;;;;;;5.72;2.25;;;;;;;;;;5030921;28;20025;-79
2024/03/19 11:16:58;;;;;;;5.72;2.90;;;;;;;;;;5032976;28;20033;-79
2024/03/19 11:19:25;;;;;;;6.88;3.00;;;;;;;;;;5014188;28;20052;-78
2024/03/19 11:21:57;;;;;;;6.10;2.58;;;;;;;;;;5023731;28;20453;-79
2024/03/19 11:24:26;;;;;;;5.32;2.55;;;;;;;;;;5032547;28;20036;-79
2024/03/19 11:27:00;;;;;;;7.95;2.45;;;;;;;;;;5022892;28;20025;-79
2024/03/19 11:29:31;;;;;;;8.30;2.20;;;;;;;;;;5027820;28;20021;-78
2024/03/19 11:32:00;;;;;;;6.72;2.42;;;;;;;;;;5034485;28;20047;-78
2024/03/19 11:34:27;;;;;;;8.73;3.08;;;;;;;;;;5032892;28;20038;-78
2024/03/19 11:36:52;;;;;;;5.13;2.40;;;;;;;;;;5000771;28;20110;-78
2024/03/19 11:39:18;;;;;;;7.32;2.10;;;;;;;;;;5037648;28;20475;-78
2024/03/19 11:41:45;;;;;;;5.85;2.00;;;;;;;;;;5016214;28;20029;-78
2024/03/19 11:44:15;;;;;;;7.25;2.40;;;;;;;;;;5022598;28;20052;-78
2024/03/19 11:46:51;;;;;;;6.82;2.13;;;;;;;;;;5021575;28;20510;-78
2024/03/19 11:49:24;;;;;;;5.60;2.15;;;;;;;;;;5035714;28;20029;-78
2024/03/19 11:52:03;;;;;;;6.93;2.47;;;;;;;;;;5009190;28;20480;-78
2024/03/19 11:54:30;;;;;;;8.00;1.80;;;;;;;;;;5024867;28;20038;-78
2024/03/19 11:56:57;;;;;;;5.05;1.80;;;;;;;;;;5028861;28;20025;-78
2024/03/19 11:59:26;;;;;;;8.70;2.10;;;;;;;;;;5019870;28;20374;-78
2024/03/19 12:01:54;;;;;;;6.65;1.85;;;;;;;;;;5018536;28;20103;-78
2024/03/19 12:04:20;;;;;;;6.80;1.77;;;;;;;;;;5028218;28;20040;-78
2024/03/19 12:06:46;;;;;;;7.88;2.13;;;;;;;;;;5010902;28;20037;-78
2024/03/19 12:09:12;;;;;;;7.15;2.10;;;;;;;;;;5015731;28;20025;-78
2024/03/19 12:11:37;;;;;;;7.15;1.98;;;;;;;;;;5020840;28;20487;-78
2024/03/19 12:14:03;;;;;;;8.93;2.55;;;;;;;;;;5018845;28;20161;-78
2024/03/19 12:16:29;;;;;;;8.05;2.22;;;;;;;;;;5022456;28;20106;-78
2024/03/19 12:18:55;;;;;;;6.32;2.08;;;;;;;;;;5020512;28;20032;-78
2024/03/19 12:21:20;;;;;;;7.35;2.00;;;;;;;;;;5020845;28;20029;-78
2024/03/19 12:23:46;;;;;;;7.40;2.10;;;;;;;;;;5018195;28;20036;-78
2024/03/19 12:26:11;;;;;;;6.63;2.00;;;;;;;;;;5044995;28;20503;-78
2024/03/19 12:28:39;;;;;;;6.30;2.05;;;;;;;;;;5022297;28;20034;-78
2024/03/19 12:31:05;;;;;;;5.80;1.92;;;;;;;;;;5027356;28;20029;-78
2024/03/19 12:33:40;;;;;;;6.80;2.70;;;;;;;;;;5021260;28;20024;-78
2024/03/19 12:36:07;;;;;;;6.32;2.22;;;;;;;;;;5026733;28;20029;-77
2024/03/19 12:38:33;;;;;;;7.10;2.10;;;;;;;;;;5002574;28;20196;-78
2024/03/19 12:40:59;;;;;;;5.82;2.28;;;;;;;;;;5017836;28;20352;-79
2024/03/19 12:43:25;;;;;;;9.05;2.65;;;;;;;;;;5026305;28;20333;-79
2024/03/19 12:45:51;;;;;;;6.57;2.20;;;;;;;;;;5027576;28;20029;-79
2024/03/19 12:48:16;;;;;;;5.88;2.08;;;;;;;;;;5024177;28;20029;-79
2024/03/19 12:50:42;;;;;;;5.18;2.08;;;;;;;;;;5007113;28;20033;-79
2024/03/19 12:53:07;;;;;;;5.18;2.03;;;;;;;;;;5038952;28;20040;-79
2024/03/19 12:55:32;;;;;;;6.78;2.20;;;;;;;;;;5035019;28;20029;-79
2024/03/19 12:57:58;;;;;;;7.72;2.25;;;;;;;;;;5021347;28;20064;-79
2024/03/19 13:00:23;;;;;;;6.05;2.40;;;;;;;;;;5020691;28;20388;-79
2024/03/19 13:02:54;;;;;;;9.02;2.55;;;;;;;;;;5007707;28;20091;-79
2024/03/19 13:05:20;;;;;;;6.70;2.08;;;;;;;;;;5021293;28;20072;-79
2024/03/19 13:07:46;;;;;;;8.50;2.20;;;;;;;;;;5029840;28;20032;-79
2024/03/19 13:10:12;;;;;;;7.28;2.10;;;;;;;;;;5032215;28;20032;-79
2024/03/19 13:12:37;;;;;;;8.18;2.40;;;;;;;;;;5009789;28;20491;-79
2024/03/19 13:15:03;;;;;;;6.00;1.80;;;;;;;;;;5032017;28;20069;-79
2024/03/19 13:17:28;;;;;;;6.85;2.10;;;;;;;;;;5029584;28;20458;-79
2024/03/19 13:19:57;;;;;;;6.75;1.88;;;;;;;;;;5019335;28;20429;-80
2024/03/19 13:22:26;;;;;;;4.80;1.55;;;;;;;;;;5009762;28;20032;-79
2024/03/19 13:24:51;;;;;;;4.55;1.50;;;;;;;;;;5009789;28;20515;-79
2024/03/19 13:27:17;;;;;;;6.60;1.48;;;;;;;;;;5016532;28;20033;-79
2024/03/19 13:29:43;;;;;;;3.67;1.35;;;;;;;;;;5024285;28;20037;-78
2024/03/19 13:32:08;;;;;;;3.97;1.48;;;;;;;;;;5022772;28;20080;-79
2024/03/19 13:34:35;;;;;;;5.70;1.60;;;;;;;;;;5029864;28;20032;-79
2024/03/19 13:37:00;;;;;;;4.70;1.38;;;;;;;;;;5001633;28;20036;-79
2024/03/19 13:39:26;;;;;;;4.85;1.35;;;;;;;;;;5023989;28;20029;-79
2024/03/19 13:41:51;;;;;;;5.15;1.45;;;;;;;;;;5011264;28;20074;-78
2024/03/19 13:44:16;;;;;;;7.70;1.90;;;;;;;;;;5025353;28;20045;-77
2024/03/19 13:46:42;;;;;;;4.80;1.48;;;;;;;;;;5023665;28;20052;-77
2024/03/19 13:49:09;;;;;;;5.38;1.50;;;;;;;;;;5022546;28;20326;-77
2024/03/19 13:51:36;;;;;;;4.22;1.52;;;;;;;;;;5021191;28;20060;-75
2024/03/19 13:54:04;;;;;;;4.18;1.70;;;;;;;;;;5032431;28;20021;-78
2024/03/19 13:56:30;;;;;;;4.40;1.73;;;;;;;;;;5018088;28;20036;-78
2024/03/19 13:58:57;;;;;;;4.72;1.70;;;;;;;;;;5016194;28;20029;-75
2024/03/19 14:01:22;;;;;;;6.20;2.00;;;;;;;;;;4999309;28;20041;-75
2024/03/19 14:03:48;;;;;;;5.38;1.92;;;;;;;;;;5026044;28;20510;-78
2024/03/19 14:06:14;;;;;;;3.95;1.65;;;;;;;;;;5024078;28;20176;-76
2024/03/19 14:08:39;;;;;;;4.07;1.50;;;;;;;;;;5005672;28;20124;-75
2024/03/19 14:11:05;;;;;;;4.45;1.67;;;;;;;;;;5012755;28;20084;-78
2024/03/19 14:13:30;;;;;;;5.95;1.80;;;;;;;;;;5008561;28;20044;-75
2024/03/19 14:15:56;;;;;;;5.70;1.70;;;;;;;;;;5013094;28;20609;-79
2024/03/19 14:18:21;;;;;;;6.43;1.80;;;;;;;;;;5022933;28;20036;-75
2024/03/19 14:20:46;;;;;;;5.00;1.65;;;;;;;;;;5022422;28;20052;-78
2024/03/19 14:23:12;;;;;;;4.72;1.88;;;;;;;;;;5011918;28;20025;-78